sensor_id;sensor_type;location;lat;lon;timestamp;P1;durP1;ratioP1;P2;durP2;ratioP2
63906;SDS011;50075;49.484;11.238;2022-07-23T00:00:47;35.22;;;12.57;;
63906;SDS011;50075;49.484;11.238;2022-07-23T00:03:13;38.65;;;12.75;;
63906;SDS011;50075;49.484;11.238;2022-07-23T00:05:39;34.47;;;13.27;;
63906;SDS011;50075;49.484;11.238;2022-07-23T00:08:05;37.20;;;12.85;;
63906;SDS011;50075;49.484;11.238;2022-07-23T00:10:31;38.85;;;12.32;;
63906;SDS011;50075;49.484;11.238;2022-07-23T00:12:57;31.65;;;12.18;;
63906;SDS011;50075;49.484;11.238;2022-07-23T00:15:23;33.15;;;12.02;;
63906;SDS011;50075;49.484;11.238;2022-07-23T00:17:48;35.75;;;12.13;;
63906;SDS011;50075;49.484;11.238;2022-07-23T00:20:14;37.47;;;13.07;;
63906;SDS011;50075;49.484;11.238;2022-07-23T00:22:52;32.75;;;12.30;;
63906;SDS011;50075;49.484;11.238;2022-07-23T00:25:20;31.08;;;13.20;;
63906;SDS011;50075;49.484;11.238;2022-07-23T00:27:46;28.83;;;12.23;;
63906;SDS011;50075;49.484;11.238;2022-07-23T00:30:12;46.47;;;13.23;;
63906;SDS011;50075;49.484;11.238;2022-07-23T00:32:53;37.70;;;12.93;;
63906;SDS011;50075;49.484;11.238;2022-07-23T00:35:22;30.00;;;11.25;;
63906;SDS011;50075;49.484;11.238;2022-07-23T00:37:48;33.13;;;11.68;;
63906;SDS011;50075;49.484;11.238;2022-07-23T00:40:14;34.38;;;12.75;;
63906;SDS011;50075;49.484;11.238;2022-07-23T00:42:40;41.00;;;12.82;;
63906;SDS011;50075;49.484;11.238;2022-07-23T00:45:05;34.60;;;12.32;;
63906;SDS011;50075;49.484;11.238;2022-07-23T00:47:32;33.28;;;11.55;;
63906;SDS011;50075;49.484;11.238;2022-07-23T00:49:58;41.50;;;12.63;;
63906;SDS011;50075;49.484;11.238;2022-07-23T00:52:23;29.27;;;9.95;;
63906;SDS011;50075;49.484;11.238;2022-07-23T00:54:49;29.77;;;11.68;;
63906;SDS011;50075;49.484;11.238;2022-07-23T00:57:15;49.13;;;13.43;;
63906;SDS011;50075;49.484;11.238;2022-07-23T00:59:41;31.92;;;12.32;;
63906;SDS011;50075;49.484;11.238;2022-07-23T01:02:07;34.25;;;11.57;;
63906;SDS011;50075;49.484;11.238;2022-07-23T01:04:32;32.55;;;11.68;;
63906;SDS011;50075;49.484;11.238;2022-07-23T01:06:58;36.40;;;12.45;;
63906;SDS011;50075;49.484;11.238;2022-07-23T01:09:24;35.38;;;11.73;;
63906;SDS011;50075;49.484;11.238;2022-07-23T01:11:51;30.75;;;11.75;;
63906;SDS011;50075;49.484;11.238;2022-07-23T01:14:17;32.97;;;12.20;;
63906;SDS011;50075;49.484;11.238;2022-07-23T01:16:44;38.00;;;11.45;;
63906;SDS011;50075;49.484;11.238;2022-07-23T01:19:11;35.10;;;12.32;;
63906;SDS011;50075;49.484;11.238;2022-07-23T01:21:38;33.42;;;12.40;;
63906;SDS011;50075;49.484;11.238;2022-07-23T01:24:05;39.05;;;11.98;;
63906;SDS011;50075;49.484;11.238;2022-07-23T01:26:31;37.53;;;12.75;;
63906;SDS011;50075;49.484;11.238;2022-07-23T01:28:57;33.58;;;12.52;;
63906;SDS011;50075;49.484;11.238;2022-07-23T01:31:22;32.25;;;12.00;;
63906;SDS011;50075;49.484;11.238;2022-07-23T01:33:48;32.17;;;11.50;;
63906;SDS011;50075;49.484;11.238;2022-07-23T01:36:14;34.47;;;11.95;;
63906;SDS011;50075;49.484;11.238;2022-07-23T01:38:39;31.17;;;12.02;;
63906;SDS011;50075;49.484;11.238;2022-07-23T01:41:05;29.13;;;10.02;;
63906;SDS011;50075;49.484;11.238;2022-07-23T01:43:30;37.17;;;12.43;;
63906;SDS011;50075;49.484;11.238;2022-07-23T01:45:55;27.67;;;10.80;;
63906;SDS011;50075;49.484;11.238;2022-07-23T01:48:21;33.50;;;11.68;;
63906;SDS011;50075;49.484;11.238;2022-07-23T01:50:47;32.33;;;11.30;;
63906;SDS011;50075;49.484;11.238;2022-07-23T01:53:13;31.70;;;12.35;;
63906;SDS011;50075;49.484;11.238;2022-07-23T01:55:38;31.52;;;11.95;;
63906;SDS011;50075;49.484;11.238;2022-07-23T01:58:04;26.48;;;9.93;;
63906;SDS011;50075;49.484;11.238;2022-07-23T02:00:30;36.30;;;11.98;;
63906;SDS011;50075;49.484;11.238;2022-07-23T02:02:56;29.55;;;12.05;;
63906;SDS011;50075;49.484;11.238;2022-07-23T02:05:23;32.20;;;11.40;;
63906;SDS011;50075;49.484;11.238;2022-07-23T02:07:49;32.72;;;12.52;;
63906;SDS011;50075;49.484;11.238;2022-07-23T02:10:15;49.58;;;14.00;;
63906;SDS011;50075;49.484;11.238;2022-07-23T02:12:40;35.22;;;13.48;;
63906;SDS011;50075;49.484;11.238;2022-07-23T02:15:06;30.05;;;12.15;;
63906;SDS011;50075;49.484;11.238;2022-07-23T02:17:32;32.72;;;12.98;;
63906;SDS011;50075;49.484;11.238;2022-07-23T02:19:57;46.90;;;13.65;;
63906;SDS011;50075;49.484;11.238;2022-07-23T02:22:22;32.25;;;12.90;;
63906;SDS011;50075;49.484;11.238;2022-07-23T02:24:48;37.75;;;12.65;;
63906;SDS011;50075;49.484;11.238;2022-07-23T02:27:13;33.35;;;12.60;;
63906;SDS011;50075;49.484;11.238;2022-07-23T02:29:39;28.30;;;11.80;;
63906;SDS011;50075;49.484;11.238;2022-07-23T02:32:04;33.58;;;12.23;;
63906;SDS011;50075;49.484;11.238;2022-07-23T02:34:29;33.03;;;12.55;;
63906;SDS011;50075;49.484;11.238;2022-07-23T02:36:55;35.08;;;12.95;;
63906;SDS011;50075;49.484;11.238;2022-07-23T02:39:20;40.03;;;13.80;;
63906;SDS011;50075;49.484;11.238;2022-07-23T02:41:45;34.47;;;13.05;;
63906;SDS011;50075;49.484;11.238;2022-07-23T02:44:11;34.75;;;13.15;;
63906;SDS011;50075;49.484;11.238;2022-07-23T02:46:36;34.53;;;12.38;;
63906;SDS011;50075;49.484;11.238;2022-07-23T02:49:02;32.38;;;10.70;;
63906;SDS011;50075;49.484;11.238;2022-07-23T02:51:29;32.80;;;12.05;;
63906;SDS011;50075;49.484;11.238;2022-07-23T02:53:55;33.75;;;12.23;;
63906;SDS011;50075;49.484;11.238;2022-07-23T02:56:20;27.30;;;11.10;;
63906;SDS011;50075;49.484;11.238;2022-07-23T02:58:45;33.17;;;13.07;;
63906;SDS011;50075;49.484;11.238;2022-07-23T03:01:11;38.47;;;13.02;;
63906;SDS011;50075;49.484;11.238;2022-07-23T03:03:36;35.00;;;12.43;;
63906;SDS011;50075;49.484;11.238;2022-07-23T03:06:01;30.40;;;12.70;;
63906;SDS011;50075;49.484;11.238;2022-07-23T03:08:27;34.38;;;12.77;;
63906;SDS011;50075;49.484;11.238;2022-07-23T03:10:52;34.50;;;13.07;;
63906;SDS011;50075;49.484;11.238;2022-07-23T03:13:18;35.83;;;13.05;;
63906;SDS011;50075;49.484;11.238;2022-07-23T03:15:43;33.30;;;12.57;;
63906;SDS011;50075;49.484;11.238;2022-07-23T03:18:08;31.38;;;12.38;;
63906;SDS011;50075;49.484;11.238;2022-07-23T03:20:34;29.55;;;12.63;;
63906;SDS011;50075;49.484;11.238;2022-07-23T03:22:59;32.97;;;12.30;;
63906;SDS011;50075;49.484;11.238;2022-07-23T03:25:24;36.03;;;12.35;;
63906;SDS011;50075;49.484;11.238;2022-07-23T03:27:50;32.55;;;11.13;;
63906;SDS011;50075;49.484;11.238;2022-07-23T03:30:15;31.63;;;12.27;;
63906;SDS011;50075;49.484;11.238;2022-07-23T03:32:41;34.80;;;12.65;;
63906;SDS011;50075;49.484;11.238;2022-07-23T03:35:06;30.60;;;12.45;;
63906;SDS011;50075;49.484;11.238;2022-07-23T03:37:32;35.90;;;12.40;;
63906;SDS011;50075;49.484;11.238;2022-07-23T03:39:57;41.50;;;13.35;;
63906;SDS011;50075;49.484;11.238;2022-07-23T03:42:23;35.10;;;12.52;;
63906;SDS011;50075;49.484;11.238;2022-07-23T03:44:48;33.50;;;11.73;;
63906;SDS011;50075;49.484;11.238;2022-07-23T03:47:13;40.70;;;13.15;;
63906;SDS011;50075;49.484;11.238;2022-07-23T03:49:39;27.17;;;12.25;;
63906;SDS011;50075;49.484;11.238;2022-07-23T03:52:04;29.55;;;11.40;;
63906;SDS011;50075;49.484;11.238;2022-07-23T03:54:30;34.25;;;13.07;;
63906;SDS011;50075;49.484;11.238;2022-07-23T03:56:55;30.40;;;11.38;;
63906;SDS011;50075;49.484;11.238;2022-07-23T03:59:21;30.58;;;12.23;;
63906;SDS011;50075;49.484;11.238;2022-07-23T04:01:47;29.85;;;10.23;;
63906;SDS011;50075;49.484;11.238;2022-07-23T04:04:12;27.77;;;11.50;;
63906;SDS011;50075;49.484;11.238;2022-07-23T04:06:37;28.23;;;12.32;;
63906;SDS011;50075;49.484;11.238;2022-07-23T04:09:03;41.28;;;13.13;;
63906;SDS011;50075;49.484;11.238;2022-07-23T04:11:29;27.23;;;11.05;;
63906;SDS011;50075;49.484;11.238;2022-07-23T04:13:55;29.98;;;11.32;;
63906;SDS011;50075;49.484;11.238;2022-07-23T04:16:20;31.90;;;12.25;;
63906;SDS011;50075;49.484;11.238;2022-07-23T04:18:45;30.95;;;12.02;;
63906;SDS011;50075;49.484;11.238;2022-07-23T04:21:11;36.70;;;12.00;;
63906;SDS011;50075;49.484;11.238;2022-07-23T04:23:36;37.47;;;11.43;;
63906;SDS011;50075;49.484;11.238;2022-07-23T04:26:01;27.52;;;11.20;;
63906;SDS011;50075;49.484;11.238;2022-07-23T04:28:27;28.90;;;10.98;;
63906;SDS011;50075;49.484;11.238;2022-07-23T04:30:52;30.13;;;12.02;;
63906;SDS011;50075;49.484;11.238;2022-07-23T04:33:20;33.88;;;11.18;;
63906;SDS011;50075;49.484;11.238;2022-07-23T04:35:47;25.35;;;9.18;;
63906;SDS011;50075;49.484;11.238;2022-07-23T04:38:12;31.35;;;10.32;;
63906;SDS011;50075;49.484;11.238;2022-07-23T04:40:37;27.80;;;10.07;;
63906;SDS011;50075;49.484;11.238;2022-07-23T04:43:03;25.65;;;9.80;;
63906;SDS011;50075;49.484;11.238;2022-07-23T04:45:28;36.53;;;10.68;;
63906;SDS011;50075;49.484;11.238;2022-07-23T04:47:53;24.98;;;11.20;;
63906;SDS011;50075;49.484;11.238;2022-07-23T04:50:19;28.30;;;10.13;;
63906;SDS011;50075;49.484;11.238;2022-07-23T04:52:46;32.83;;;11.15;;
63906;SDS011;50075;49.484;11.238;2022-07-23T04:55:13;34.30;;;11.30;;
63906;SDS011;50075;49.484;11.238;2022-07-23T04:57:38;30.52;;;11.38;;
63906;SDS011;50075;49.484;11.238;2022-07-23T05:00:05;41.55;;;12.13;;
63906;SDS011;50075;49.484;11.238;2022-07-23T05:02:31;25.83;;;9.70;;
63906;SDS011;50075;49.484;11.238;2022-07-23T05:04:56;27.15;;;10.43;;
63906;SDS011;50075;49.484;11.238;2022-07-23T05:07:21;35.58;;;10.48;;
63906;SDS011;50075;49.484;11.238;2022-07-23T05:09:47;30.30;;;9.40;;
63906;SDS011;50075;49.484;11.238;2022-07-23T05:12:12;22.75;;;8.88;;
63906;SDS011;50075;49.484;11.238;2022-07-23T05:14:38;28.00;;;9.25;;
63906;SDS011;50075;49.484;11.238;2022-07-23T05:17:03;25.90;;;8.93;;
63906;SDS011;50075;49.484;11.238;2022-07-23T05:19:28;28.90;;;9.57;;
63906;SDS011;50075;49.484;11.238;2022-07-23T05:21:54;30.20;;;9.32;;
63906;SDS011;50075;49.484;11.238;2022-07-23T05:24:19;28.80;;;9.05;;
63906;SDS011;50075;49.484;11.238;2022-07-23T05:26:45;23.08;;;8.38;;
63906;SDS011;50075;49.484;11.238;2022-07-23T05:29:10;25.08;;;8.95;;
63906;SDS011;50075;49.484;11.238;2022-07-23T05:31:36;26.38;;;8.15;;
63906;SDS011;50075;49.484;11.238;2022-07-23T05:34:01;28.98;;;8.48;;
63906;SDS011;50075;49.484;11.238;2022-07-23T05:36:27;27.65;;;8.30;;
63906;SDS011;50075;49.484;11.238;2022-07-23T05:38:52;23.67;;;7.47;;
63906;SDS011;50075;49.484;11.238;2022-07-23T05:41:17;23.15;;;8.00;;
63906;SDS011;50075;49.484;11.238;2022-07-23T05:43:43;22.77;;;7.88;;
63906;SDS011;50075;49.484;11.238;2022-07-23T05:46:08;30.55;;;8.10;;
63906;SDS011;50075;49.484;11.238;2022-07-23T05:48:34;19.02;;;7.05;;
63906;SDS011;50075;49.484;11.238;2022-07-23T05:50:59;26.50;;;7.50;;
63906;SDS011;50075;49.484;11.238;2022-07-23T05:53:25;28.63;;;7.65;;
63906;SDS011;50075;49.484;11.238;2022-07-23T05:55:51;18.85;;;6.43;;
63906;SDS011;50075;49.484;11.238;2022-07-23T05:58:16;23.17;;;7.05;;
63906;SDS011;50075;49.484;11.238;2022-07-23T06:00:42;20.80;;;6.97;;
63906;SDS011;50075;49.484;11.238;2022-07-23T06:03:07;17.15;;;6.07;;
63906;SDS011;50075;49.484;11.238;2022-07-23T06:05:32;20.23;;;6.18;;
63906;SDS011;50075;49.484;11.238;2022-07-23T06:07:58;18.77;;;5.95;;
63906;SDS011;50075;49.484;11.238;2022-07-23T06:10:23;19.45;;;5.88;;
63906;SDS011;50075;49.484;11.238;2022-07-23T06:12:48;13.38;;;5.38;;
63906;SDS011;50075;49.484;11.238;2022-07-23T06:15:14;17.08;;;5.72;;
63906;SDS011;50075;49.484;11.238;2022-07-23T06:17:39;19.33;;;6.18;;
63906;SDS011;50075;49.484;11.238;2022-07-23T06:20:05;24.95;;;6.95;;
63906;SDS011;50075;49.484;11.238;2022-07-23T06:22:32;16.25;;;5.57;;
63906;SDS011;50075;49.484;11.238;2022-07-23T06:24:57;14.35;;;5.20;;
63906;SDS011;50075;49.484;11.238;2022-07-23T06:27:23;14.02;;;5.50;;
63906;SDS011;50075;49.484;11.238;2022-07-23T06:29:48;15.45;;;5.43;;
63906;SDS011;50075;49.484;11.238;2022-07-23T06:32:13;13.73;;;5.32;;
63906;SDS011;50075;49.484;11.238;2022-07-23T06:34:39;18.08;;;5.20;;
63906;SDS011;50075;49.484;11.238;2022-07-23T06:37:04;14.13;;;5.03;;
63906;SDS011;50075;49.484;11.238;2022-07-23T06:39:30;12.55;;;4.72;;
63906;SDS011;50075;49.484;11.238;2022-07-23T06:41:55;19.48;;;6.13;;
63906;SDS011;50075;49.484;11.238;2022-07-23T06:44:21;13.35;;;5.15;;
63906;SDS011;50075;49.484;11.238;2022-07-23T06:46:46;15.63;;;5.22;;
63906;SDS011;50075;49.484;11.238;2022-07-23T06:49:11;12.48;;;4.68;;
63906;SDS011;50075;49.484;11.238;2022-07-23T06:51:37;14.52;;;5.13;;
63906;SDS011;50075;49.484;11.238;2022-07-23T06:54:02;11.73;;;4.93;;
63906;SDS011;50075;49.484;11.238;2022-07-23T06:56:28;15.55;;;5.00;;
63906;SDS011;50075;49.484;11.238;2022-07-23T06:58:53;15.52;;;5.47;;
63906;SDS011;50075;49.484;11.238;2022-07-23T07:01:19;13.38;;;5.05;;
63906;SDS011;50075;49.484;11.238;2022-07-23T07:03:44;10.77;;;4.65;;
63906;SDS011;50075;49.484;11.238;2022-07-23T07:06:09;12.93;;;5.10;;
63906;SDS011;50075;49.484;11.238;2022-07-23T07:08:35;15.40;;;5.47;;
63906;SDS011;50075;49.484;11.238;2022-07-23T07:11:00;15.70;;;5.53;;
63906;SDS011;50075;49.484;11.238;2022-07-23T07:13:26;12.65;;;4.80;;
63906;SDS011;50075;49.484;11.238;2022-07-23T07:15:51;12.00;;;5.13;;
63906;SDS011;50075;49.484;11.238;2022-07-23T07:18:16;12.63;;;5.00;;
63906;SDS011;50075;49.484;11.238;2022-07-23T07:20:42;12.80;;;5.00;;
63906;SDS011;50075;49.484;11.238;2022-07-23T07:23:07;13.43;;;5.15;;
63906;SDS011;50075;49.484;11.238;2022-07-23T07:25:33;15.07;;;5.32;;
63906;SDS011;50075;49.484;11.238;2022-07-23T07:27:58;16.63;;;5.70;;
63906;SDS011;50075;49.484;11.238;2022-07-23T07:30:24;16.20;;;5.60;;
63906;SDS011;50075;49.484;11.238;2022-07-23T07:32:49;15.32;;;5.75;;
63906;SDS011;50075;49.484;11.238;2022-07-23T07:35:14;12.68;;;5.55;;
63906;SDS011;50075;49.484;11.238;2022-07-23T07:37:40;17.88;;;5.93;;
63906;SDS011;50075;49.484;11.238;2022-07-23T07:40:05;25.48;;;7.40;;
63906;SDS011;50075;49.484;11.238;2022-07-23T07:42:31;15.70;;;6.13;;
63906;SDS011;50075;49.484;11.238;2022-07-23T07:44:57;13.90;;;5.63;;
63906;SDS011;50075;49.484;11.238;2022-07-23T07:47:22;23.80;;;7.20;;
63906;SDS011;50075;49.484;11.238;2022-07-23T07:49:48;19.63;;;6.63;;
63906;SDS011;50075;49.484;11.238;2022-07-23T07:52:13;16.95;;;6.32;;
63906;SDS011;50075;49.484;11.238;2022-07-23T07:54:38;20.85;;;6.68;;
63906;SDS011;50075;49.484;11.238;2022-07-23T07:57:03;18.30;;;6.47;;
63906;SDS011;50075;49.484;11.238;2022-07-23T07:59:29;20.20;;;7.05;;
63906;SDS011;50075;49.484;11.238;2022-07-23T08:01:54;19.00;;;6.63;;
63906;SDS011;50075;49.484;11.238;2022-07-23T08:04:20;20.70;;;6.70;;
63906;SDS011;50075;49.484;11.238;2022-07-23T08:06:45;18.90;;;7.00;;
63906;SDS011;50075;49.484;11.238;2022-07-23T08:09:10;17.42;;;7.07;;
63906;SDS011;50075;49.484;11.238;2022-07-23T08:11:36;23.35;;;7.10;;
63906;SDS011;50075;49.484;11.238;2022-07-23T08:14:02;18.67;;;6.90;;
63906;SDS011;50075;49.484;11.238;2022-07-23T08:16:27;21.42;;;7.38;;
63906;SDS011;50075;49.484;11.238;2022-07-23T08:18:53;18.95;;;7.47;;
63906;SDS011;50075;49.484;11.238;2022-07-23T08:21:18;20.67;;;7.50;;
63906;SDS011;50075;49.484;11.238;2022-07-23T08:23:43;21.13;;;7.18;;
63906;SDS011;50075;49.484;11.238;2022-07-23T08:26:09;23.92;;;7.82;;
63906;SDS011;50075;49.484;11.238;2022-07-23T08:28:34;19.20;;;6.97;;
63906;SDS011;50075;49.484;11.238;2022-07-23T08:31:00;24.30;;;7.47;;
63906;SDS011;50075;49.484;11.238;2022-07-23T08:33:26;23.70;;;7.57;;
63906;SDS011;50075;49.484;11.238;2022-07-23T08:35:51;21.65;;;7.18;;
63906;SDS011;50075;49.484;11.238;2022-07-23T08:38:21;20.27;;;7.10;;
63906;SDS011;50075;49.484;11.238;2022-07-23T08:40:51;23.90;;;7.43;;
63906;SDS011;50075;49.484;11.238;2022-07-23T08:43:21;22.92;;;7.15;;
63906;SDS011;50075;49.484;11.238;2022-07-23T08:45:48;22.73;;;7.20;;
63906;SDS011;50075;49.484;11.238;2022-07-23T08:48:17;23.58;;;7.30;;
63906;SDS011;50075;49.484;11.238;2022-07-23T08:50:45;19.55;;;6.90;;
63906;SDS011;50075;49.484;11.238;2022-07-23T08:53:14;24.95;;;7.47;;
63906;SDS011;50075;49.484;11.238;2022-07-23T08:55:43;17.85;;;6.60;;
63906;SDS011;50075;49.484;11.238;2022-07-23T08:58:12;24.10;;;7.43;;
63906;SDS011;50075;49.484;11.238;2022-07-23T09:00:37;21.35;;;7.22;;
63906;SDS011;50075;49.484;11.238;2022-07-23T09:03:03;22.23;;;7.65;;
63906;SDS011;50075;49.484;11.238;2022-07-23T09:05:28;20.45;;;7.00;;
63906;SDS011;50075;49.484;11.238;2022-07-23T09:13:22;23.70;;;7.30;;
63906;SDS011;50075;49.484;11.238;2022-07-23T09:18:32;24.33;;;7.63;;
63906;SDS011;50075;49.484;11.238;2022-07-23T09:21:07;22.73;;;7.75;;
63906;SDS011;50075;49.484;11.238;2022-07-23T09:28:50;22.10;;;7.75;;
63906;SDS011;50075;49.484;11.238;2022-07-23T09:31:20;22.38;;;7.95;;
63906;SDS011;50075;49.484;11.238;2022-07-23T09:33:47;20.15;;;8.05;;
63906;SDS011;50075;49.484;11.238;2022-07-23T09:36:12;20.55;;;7.80;;
63906;SDS011;50075;49.484;11.238;2022-07-23T09:38:56;22.70;;;7.80;;
63906;SDS011;50075;49.484;11.238;2022-07-23T09:41:22;23.30;;;7.57;;
63906;SDS011;50075;49.484;11.238;2022-07-23T09:43:52;22.05;;;7.30;;
63906;SDS011;50075;49.484;11.238;2022-07-23T09:46:23;19.52;;;6.78;;
63906;SDS011;50075;49.484;11.238;2022-07-23T09:48:52;21.33;;;7.30;;
63906;SDS011;50075;49.484;11.238;2022-07-23T09:53:53;24.77;;;7.63;;
63906;SDS011;50075;49.484;11.238;2022-07-23T09:56:18;21.80;;;6.90;;
63906;SDS011;50075;49.484;11.238;2022-07-23T09:58:45;21.60;;;6.90;;
63906;SDS011;50075;49.484;11.238;2022-07-23T10:01:15;25.45;;;7.18;;
63906;SDS011;50075;49.484;11.238;2022-07-23T10:03:41;23.75;;;7.25;;
63906;SDS011;50075;49.484;11.238;2022-07-23T10:06:08;23.90;;;6.85;;
63906;SDS011;50075;49.484;11.238;2022-07-23T10:08:35;24.17;;;6.95;;
63906;SDS011;50075;49.484;11.238;2022-07-23T10:11:03;26.38;;;7.85;;
63906;SDS011;50075;49.484;11.238;2022-07-23T10:13:29;28.40;;;7.57;;
63906;SDS011;50075;49.484;11.238;2022-07-23T10:15:58;25.90;;;7.60;;
63906;SDS011;50075;49.484;11.238;2022-07-23T10:18:24;31.90;;;8.50;;
63906;SDS011;50075;49.484;11.238;2022-07-23T10:20:49;24.08;;;7.63;;
63906;SDS011;50075;49.484;11.238;2022-07-23T10:31:30;26.55;;;7.70;;
63906;SDS011;50075;49.484;11.238;2022-07-23T10:36:46;28.88;;;8.05;;
63906;SDS011;50075;49.484;11.238;2022-07-23T10:39:19;30.17;;;8.57;;
63906;SDS011;50075;49.484;11.238;2022-07-23T10:41:49;30.80;;;8.60;;
63906;SDS011;50075;49.484;11.238;2022-07-23T10:46:53;27.40;;;8.60;;
63906;SDS011;50075;49.484;11.238;2022-07-23T10:49:35;27.45;;;9.15;;
63906;SDS011;50075;49.484;11.238;2022-07-23T10:57:27;24.98;;;8.13;;
63906;SDS011;50075;49.484;11.238;2022-07-23T11:02:31;27.83;;;8.05;;
63906;SDS011;50075;49.484;11.238;2022-07-23T11:05:02;26.65;;;8.10;;
63906;SDS011;50075;49.484;11.238;2022-07-23T11:07:29;23.25;;;8.30;;
63906;SDS011;50075;49.484;11.238;2022-07-23T11:09:55;33.38;;;9.32;;
63906;SDS011;50075;49.484;11.238;2022-07-23T11:17:27;27.98;;;8.77;;
63906;SDS011;50075;49.484;11.238;2022-07-23T11:25:07;32.20;;;9.25;;
63906;SDS011;50075;49.484;11.238;2022-07-23T11:27:44;27.50;;;9.10;;
63906;SDS011;50075;49.484;11.238;2022-07-23T11:30:36;38.15;;;9.93;;
63906;SDS011;50075;49.484;11.238;2022-07-23T11:35:34;24.75;;;8.60;;
63906;SDS011;50075;49.484;11.238;2022-07-23T11:38:05;29.83;;;8.80;;
63906;SDS011;50075;49.484;11.238;2022-07-23T11:40:31;33.17;;;8.65;;
63906;SDS011;50075;49.484;11.238;2022-07-23T11:43:07;28.15;;;8.48;;
63906;SDS011;50075;49.484;11.238;2022-07-23T11:48:16;28.25;;;8.30;;
63906;SDS011;50075;49.484;11.238;2022-07-23T11:50:41;27.50;;;8.18;;
63906;SDS011;50075;49.484;11.238;2022-07-23T11:53:07;21.95;;;7.35;;
63906;SDS011;50075;49.484;11.238;2022-07-23T11:55:32;25.23;;;7.80;;
63906;SDS011;50075;49.484;11.238;2022-07-23T11:57:58;23.20;;;7.75;;
63906;SDS011;50075;49.484;11.238;2022-07-23T12:00:24;27.60;;;8.35;;
63906;SDS011;50075;49.484;11.238;2022-07-23T12:02:52;25.45;;;7.93;;
63906;SDS011;50075;49.484;11.238;2022-07-23T12:07:48;23.77;;;7.47;;
63906;SDS011;50075;49.484;11.238;2022-07-23T12:10:23;25.33;;;8.05;;
63906;SDS011;50075;49.484;11.238;2022-07-23T12:13:04;24.73;;;7.65;;
63906;SDS011;50075;49.484;11.238;2022-07-23T12:15:35;23.88;;;7.63;;
63906;SDS011;50075;49.484;11.238;2022-07-23T12:18:04;26.13;;;7.22;;
63906;SDS011;50075;49.484;11.238;2022-07-23T12:20:32;24.73;;;6.63;;
63906;SDS011;50075;49.484;11.238;2022-07-23T12:23:00;22.58;;;7.03;;
63906;SDS011;50075;49.484;11.238;2022-07-23T12:25:28;26.92;;;7.57;;
63906;SDS011;50075;49.484;11.238;2022-07-23T12:28:03;19.55;;;6.78;;
63906;SDS011;50075;49.484;11.238;2022-07-23T12:30:41;18.02;;;6.93;;
63906;SDS011;50075;49.484;11.238;2022-07-23T12:33:09;27.58;;;7.68;;
63906;SDS011;50075;49.484;11.238;2022-07-23T12:38:08;41.20;;;9.20;;
63906;SDS011;50075;49.484;11.238;2022-07-23T12:40:45;19.45;;;6.70;;
63906;SDS011;50075;49.484;11.238;2022-07-23T12:46:11;21.07;;;7.07;;
63906;SDS011;50075;49.484;11.238;2022-07-23T12:51:18;23.90;;;6.93;;
63906;SDS011;50075;49.484;11.238;2022-07-23T12:53:49;20.40;;;7.10;;
63906;SDS011;50075;49.484;11.238;2022-07-23T12:56:32;22.88;;;7.88;;
63906;SDS011;50075;49.484;11.238;2022-07-23T12:59:06;25.98;;;7.55;;
63906;SDS011;50075;49.484;11.238;2022-07-23T13:01:37;25.27;;;7.50;;
63906;SDS011;50075;49.484;11.238;2022-07-23T13:04:08;18.02;;;6.70;;
63906;SDS011;50075;49.484;11.238;2022-07-23T13:09:05;20.63;;;7.03;;
63906;SDS011;50075;49.484;11.238;2022-07-23T13:11:32;26.48;;;8.10;;
63906;SDS011;50075;49.484;11.238;2022-07-23T13:13:58;20.10;;;7.10;;
63906;SDS011;50075;49.484;11.238;2022-07-23T13:16:26;17.95;;;7.55;;
63906;SDS011;50075;49.484;11.238;2022-07-23T13:18:51;24.92;;;7.95;;
63906;SDS011;50075;49.484;11.238;2022-07-23T13:21:17;19.05;;;6.95;;
63906;SDS011;50075;49.484;11.238;2022-07-23T13:23:42;21.10;;;7.63;;
63906;SDS011;50075;49.484;11.238;2022-07-23T13:26:08;21.70;;;7.63;;
63906;SDS011;50075;49.484;11.238;2022-07-23T13:28:33;20.52;;;7.22;;
63906;SDS011;50075;49.484;11.238;2022-07-23T13:30:58;17.80;;;6.63;;
63906;SDS011;50075;49.484;11.238;2022-07-23T13:33:24;20.98;;;7.13;;
63906;SDS011;50075;49.484;11.238;2022-07-23T13:35:50;20.13;;;7.05;;
63906;SDS011;50075;49.484;11.238;2022-07-23T13:38:17;22.13;;;6.60;;
63906;SDS011;50075;49.484;11.238;2022-07-23T13:40:44;23.52;;;7.82;;
63906;SDS011;50075;49.484;11.238;2022-07-23T13:43:12;20.55;;;7.53;;
63906;SDS011;50075;49.484;11.238;2022-07-23T13:45:39;18.55;;;7.13;;
63906;SDS011;50075;49.484;11.238;2022-07-23T13:48:07;20.90;;;7.20;;
63906;SDS011;50075;49.484;11.238;2022-07-23T13:50:33;18.50;;;7.70;;
63906;SDS011;50075;49.484;11.238;2022-07-23T13:53:01;24.63;;;7.80;;
63906;SDS011;50075;49.484;11.238;2022-07-23T13:55:31;24.77;;;7.15;;
63906;SDS011;50075;49.484;11.238;2022-07-23T13:57:57;19.73;;;7.20;;
63906;SDS011;50075;49.484;11.238;2022-07-23T14:00:23;22.27;;;7.40;;
63906;SDS011;50075;49.484;11.238;2022-07-23T14:02:48;14.43;;;5.88;;
63906;SDS011;50075;49.484;11.238;2022-07-23T14:05:14;20.58;;;7.13;;
63906;SDS011;50075;49.484;11.238;2022-07-23T14:07:39;20.25;;;7.18;;
63906;SDS011;50075;49.484;11.238;2022-07-23T14:10:06;30.42;;;8.40;;
63906;SDS011;50075;49.484;11.238;2022-07-23T14:12:33;19.00;;;6.80;;
63906;SDS011;50075;49.484;11.238;2022-07-23T14:14:58;20.58;;;7.22;;
63906;SDS011;50075;49.484;11.238;2022-07-23T14:17:24;20.73;;;6.97;;
63906;SDS011;50075;49.484;11.238;2022-07-23T14:19:49;18.30;;;6.55;;
63906;SDS011;50075;49.484;11.238;2022-07-23T14:22:15;18.58;;;6.75;;
63906;SDS011;50075;49.484;11.238;2022-07-23T14:24:41;16.80;;;6.82;;
63906;SDS011;50075;49.484;11.238;2022-07-23T14:27:07;20.83;;;6.95;;
63906;SDS011;50075;49.484;11.238;2022-07-23T14:29:33;24.38;;;7.13;;
63906;SDS011;50075;49.484;11.238;2022-07-23T14:31:58;19.73;;;6.65;;
63906;SDS011;50075;49.484;11.238;2022-07-23T14:34:24;19.98;;;6.70;;
63906;SDS011;50075;49.484;11.238;2022-07-23T14:36:50;23.27;;;6.93;;
63906;SDS011;50075;49.484;11.238;2022-07-23T14:39:16;22.85;;;7.32;;
63906;SDS011;50075;49.484;11.238;2022-07-23T14:41:41;24.17;;;7.18;;
63906;SDS011;50075;49.484;11.238;2022-07-23T14:44:07;19.10;;;6.80;;
63906;SDS011;50075;49.484;11.238;2022-07-23T14:46:32;18.67;;;6.95;;
63906;SDS011;50075;49.484;11.238;2022-07-23T14:48:58;20.95;;;6.72;;
63906;SDS011;50075;49.484;11.238;2022-07-23T14:51:23;21.27;;;7.00;;
63906;SDS011;50075;49.484;11.238;2022-07-23T14:53:49;18.80;;;6.93;;
63906;SDS011;50075;49.484;11.238;2022-07-23T14:56:14;15.50;;;6.53;;
63906;SDS011;50075;49.484;11.238;2022-07-23T14:58:40;19.83;;;7.28;;
63906;SDS011;50075;49.484;11.238;2022-07-23T15:01:05;14.85;;;6.50;;
63906;SDS011;50075;49.484;11.238;2022-07-23T15:03:31;18.77;;;6.80;;
63906;SDS011;50075;49.484;11.238;2022-07-23T15:05:57;23.05;;;7.78;;
63906;SDS011;50075;49.484;11.238;2022-07-23T15:08:23;20.02;;;6.43;;
63906;SDS011;50075;49.484;11.238;2022-07-23T15:10:49;18.48;;;7.05;;
63906;SDS011;50075;49.484;11.238;2022-07-23T15:13:14;17.23;;;6.68;;
63906;SDS011;50075;49.484;11.238;2022-07-23T15:15:40;18.27;;;6.68;;
63906;SDS011;50075;49.484;11.238;2022-07-23T15:18:05;18.27;;;6.65;;